sensor_id;sensor_type;location;lat;lon;timestamp;P1;durP1;ratioP1;P2;durP2;ratioP2
51732;SDS011;39139;53.144;6.244;2023-06-22T00:00:46;14.95;;;13.65;;
51732;SDS011;39139;53.144;6.244;2023-06-22T00:03:12;16.02;;;14.52;;
51732;SDS011;39139;53.144;6.244;2023-06-22T00:05:37;16.75;;;15.18;;
51732;SDS011;39139;53.144;6.244;2023-06-22T00:08:03;16.98;;;15.38;;
51732;SDS011;39139;53.144;6.244;2023-06-22T00:10:30;15.48;;;13.90;;
51732;SDS011;39139;53.144;6.244;2023-06-22T00:12:55;17.05;;;15.43;;
51732;SDS011;39139;53.144;6.244;2023-06-22T00:15:21;15.98;;;14.48;;
51732;SDS011;39139;53.144;6.244;2023-06-22T00:17:47;16.60;;;14.60;;
51732;SDS011;39139;53.144;6.244;2023-06-22T00:20:12;15.00;;;13.52;;
51732;SDS011;39139;53.144;6.244;2023-06-22T00:22:39;15.43;;;13.93;;
51732;SDS011;39139;53.144;6.244;2023-06-22T00:25:07;15.18;;;13.68;;
51732;SDS011;39139;53.144;6.244;2023-06-22T00:27:34;15.02;;;13.52;;
51732;SDS011;39139;53.144;6.244;2023-06-22T00:30:00;16.80;;;13.48;;
51732;SDS011;39139;53.144;6.244;2023-06-22T00:32:26;14.07;;;12.65;;
51732;SDS011;39139;53.144;6.244;2023-06-22T00:34:51;15.23;;;13.73;;
51732;SDS011;39139;53.144;6.244;2023-06-22T00:37:17;14.93;;;12.80;;
51732;SDS011;39139;53.144;6.244;2023-06-22T00:39:43;13.75;;;12.20;;
51732;SDS011;39139;53.144;6.244;2023-06-22T00:42:09;16.90;;;12.70;;
51732;SDS011;39139;53.144;6.244;2023-06-22T00:44:35;11.88;;;10.80;;
51732;SDS011;39139;53.144;6.244;2023-06-22T00:47:01;11.95;;;10.75;;
51732;SDS011;39139;53.144;6.244;2023-06-22T00:49:28;14.48;;;13.07;;
51732;SDS011;39139;53.144;6.244;2023-06-22T00:51:53;15.65;;;12.20;;
51732;SDS011;39139;53.144;6.244;2023-06-22T00:54:20;14.57;;;13.27;;
51732;SDS011;39139;53.144;6.244;2023-06-22T00:56:53;18.83;;;16.58;;
51732;SDS011;39139;53.144;6.244;2023-06-22T00:59:22;18.08;;;16.27;;
51732;SDS011;39139;53.144;6.244;2023-06-22T01:01:49;17.20;;;15.50;;
51732;SDS011;39139;53.144;6.244;2023-06-22T01:04:15;18.80;;;15.82;;
51732;SDS011;39139;53.144;6.244;2023-06-22T01:12:40;12.02;;;10.93;;
51732;SDS011;39139;53.144;6.244;2023-06-22T01:15:11;11.00;;;10.05;;
51732;SDS011;39139;53.144;6.244;2023-06-22T01:17:57;12.02;;;10.93;;
51732;SDS011;39139;53.144;6.244;2023-06-22T01:20:24;11.18;;;10.18;;
51732;SDS011;39139;53.144;6.244;2023-06-22T01:23:11;11.48;;;10.18;;
51732;SDS011;39139;53.144;6.244;2023-06-22T01:28:33;13.10;;;12.00;;
51732;SDS011;39139;53.144;6.244;2023-06-22T01:31:15;11.93;;;11.10;;
51732;SDS011;39139;53.144;6.244;2023-06-22T01:36:11;12.65;;;11.70;;
51732;SDS011;39139;53.144;6.244;2023-06-22T01:38:38;12.80;;;11.70;;
51732;SDS011;39139;53.144;6.244;2023-06-22T01:41:04;13.13;;;12.05;;
51732;SDS011;39139;53.144;6.244;2023-06-22T01:43:31;15.52;;;13.98;;
51732;SDS011;39139;53.144;6.244;2023-06-22T01:46:00;15.68;;;14.18;;
51732;SDS011;39139;53.144;6.244;2023-06-22T01:48:27;15.43;;;14.02;;
51732;SDS011;39139;53.144;6.244;2023-06-22T01:50:53;14.15;;;12.80;;
51732;SDS011;39139;53.144;6.244;2023-06-22T01:53:23;14.77;;;13.48;;
51732;SDS011;39139;53.144;6.244;2023-06-22T01:55:49;15.48;;;14.07;;
51732;SDS011;39139;53.144;6.244;2023-06-22T01:58:15;15.18;;;13.75;;
51732;SDS011;39139;53.144;6.244;2023-06-22T02:00:44;16.20;;;14.60;;
51732;SDS011;39139;53.144;6.244;2023-06-22T02:03:19;15.05;;;13.52;;
51732;SDS011;39139;53.144;6.244;2023-06-22T02:06:08;14.02;;;12.73;;
51732;SDS011;39139;53.144;6.244;2023-06-22T02:08:40;15.77;;;14.30;;
51732;SDS011;39139;53.144;6.244;2023-06-22T02:11:11;18.35;;;15.07;;
51732;SDS011;39139;53.144;6.244;2023-06-22T02:13:40;41.03;;;18.83;;
51732;SDS011;39139;53.144;6.244;2023-06-22T02:16:08;25.60;;;18.83;;
51732;SDS011;39139;53.144;6.244;2023-06-22T02:18:36;21.38;;;18.60;;
51732;SDS011;39139;53.144;6.244;2023-06-22T02:21:02;20.08;;;18.27;;
51732;SDS011;39139;53.144;6.244;2023-06-22T02:23:28;21.52;;;19.30;;
51732;SDS011;39139;53.144;6.244;2023-06-22T02:25:53;20.55;;;18.52;;
51732;SDS011;39139;53.144;6.244;2023-06-22T02:28:19;19.85;;;18.05;;
51732;SDS011;39139;53.144;6.244;2023-06-22T02:30:45;18.75;;;17.15;;
51732;SDS011;39139;53.144;6.244;2023-06-22T02:33:11;19.13;;;17.50;;
51732;SDS011;39139;53.144;6.244;2023-06-22T02:35:36;17.98;;;16.55;;
51732;SDS011;39139;53.144;6.244;2023-06-22T02:38:03;17.75;;;16.35;;
51732;SDS011;39139;53.144;6.244;2023-06-22T02:40:29;19.75;;;17.77;;
51732;SDS011;39139;53.144;6.244;2023-06-22T02:42:55;18.95;;;16.92;;
51732;SDS011;39139;53.144;6.244;2023-06-22T02:45:23;17.63;;;16.13;;
51732;SDS011;39139;53.144;6.244;2023-06-22T02:47:49;18.92;;;17.02;;
51732;SDS011;39139;53.144;6.244;2023-06-22T02:50:15;17.88;;;16.38;;
51732;SDS011;39139;53.144;6.244;2023-06-22T02:52:40;18.13;;;16.55;;
51732;SDS011;39139;53.144;6.244;2023-06-22T02:55:06;17.38;;;16.08;;
51732;SDS011;39139;53.144;6.244;2023-06-22T02:57:33;18.98;;;17.17;;
51732;SDS011;39139;53.144;6.244;2023-06-22T02:59:59;17.98;;;16.48;;
51732;SDS011;39139;53.144;6.244;2023-06-22T03:02:24;17.85;;;16.35;;
51732;SDS011;39139;53.144;6.244;2023-06-22T03:04:51;17.35;;;15.85;;
51732;SDS011;39139;53.144;6.244;2023-06-22T03:07:18;16.80;;;15.23;;
51732;SDS011;39139;53.144;6.244;2023-06-22T03:09:44;17.38;;;15.93;;
51732;SDS011;39139;53.144;6.244;2023-06-22T03:12:10;18.48;;;16.50;;
51732;SDS011;39139;53.144;6.244;2023-06-22T03:14:36;15.98;;;14.68;;
51732;SDS011;39139;53.144;6.244;2023-06-22T03:17:03;14.85;;;13.70;;
51732;SDS011;39139;53.144;6.244;2023-06-22T03:19:30;14.98;;;13.77;;
51732;SDS011;39139;53.144;6.244;2023-06-22T03:21:59;17.38;;;15.63;;
51732;SDS011;39139;53.144;6.244;2023-06-22T03:24:25;18.83;;;17.23;;
51732;SDS011;39139;53.144;6.244;2023-06-22T03:26:53;17.40;;;15.80;;
51732;SDS011;39139;53.144;6.244;2023-06-22T03:29:19;17.60;;;15.88;;
51732;SDS011;39139;53.144;6.244;2023-06-22T03:31:45;18.60;;;16.92;;
51732;SDS011;39139;53.144;6.244;2023-06-22T03:34:11;19.60;;;17.90;;
51732;SDS011;39139;53.144;6.244;2023-06-22T03:36:36;19.42;;;17.60;;
51732;SDS011;39139;53.144;6.244;2023-06-22T03:39:02;17.77;;;16.23;;
51732;SDS011;39139;53.144;6.244;2023-06-22T03:41:28;18.30;;;16.42;;
51732;SDS011;39139;53.144;6.244;2023-06-22T03:43:53;18.95;;;17.33;;
51732;SDS011;39139;53.144;6.244;2023-06-22T03:46:19;19.35;;;17.35;;
51732;SDS011;39139;53.144;6.244;2023-06-22T03:48:45;19.58;;;17.85;;
51732;SDS011;39139;53.144;6.244;2023-06-22T03:51:11;18.85;;;16.92;;
51732;SDS011;39139;53.144;6.244;2023-06-22T03:53:37;21.48;;;19.60;;
51732;SDS011;39139;53.144;6.244;2023-06-22T03:56:02;20.38;;;18.77;;
51732;SDS011;39139;53.144;6.244;2023-06-22T03:58:28;28.92;;;18.35;;
51732;SDS011;39139;53.144;6.244;2023-06-22T04:00:57;24.33;;;22.35;;
51732;SDS011;39139;53.144;6.244;2023-06-22T04:03:25;22.05;;;20.25;;
51732;SDS011;39139;53.144;6.244;2023-06-22T04:05:50;28.63;;;22.02;;
51732;SDS011;39139;53.144;6.244;2023-06-22T04:08:16;23.80;;;21.52;;
51732;SDS011;39139;53.144;6.244;2023-06-22T04:10:42;26.40;;;23.90;;
51732;SDS011;39139;53.144;6.244;2023-06-22T04:13:08;29.50;;;24.90;;
51732;SDS011;39139;53.144;6.244;2023-06-22T04:15:34;26.92;;;24.13;;
51732;SDS011;39139;53.144;6.244;2023-06-22T04:18:00;66.25;;;26.02;;
51732;SDS011;39139;53.144;6.244;2023-06-22T04:20:25;45.65;;;25.75;;
51732;SDS011;39139;53.144;6.244;2023-06-22T04:22:52;31.73;;;27.02;;
51732;SDS011;39139;53.144;6.244;2023-06-22T04:25:21;42.17;;;26.33;;
51732;SDS011;39139;53.144;6.244;2023-06-22T04:27:47;28.75;;;25.67;;
51732;SDS011;39139;53.144;6.244;2023-06-22T04:30:13;29.63;;;26.73;;
51732;SDS011;39139;53.144;6.244;2023-06-22T04:32:41;30.48;;;27.35;;
51732;SDS011;39139;53.144;6.244;2023-06-22T04:35:08;30.17;;;26.98;;
51732;SDS011;39139;53.144;6.244;2023-06-22T04:37:34;29.02;;;26.33;;
51732;SDS011;39139;53.144;6.244;2023-06-22T04:39:59;30.17;;;27.40;;
51732;SDS011;39139;53.144;6.244;2023-06-22T04:42:28;27.70;;;25.25;;
51732;SDS011;39139;53.144;6.244;2023-06-22T04:44:54;27.23;;;23.40;;
51732;SDS011;39139;53.144;6.244;2023-06-22T04:47:19;27.60;;;24.90;;
51732;SDS011;39139;53.144;6.244;2023-06-22T04:49:45;26.05;;;23.67;;
51732;SDS011;39139;53.144;6.244;2023-06-22T04:52:11;27.08;;;24.35;;
51732;SDS011;39139;53.144;6.244;2023-06-22T04:54:39;42.22;;;23.88;;
51732;SDS011;39139;53.144;6.244;2023-06-22T04:57:13;29.73;;;26.23;;
51732;SDS011;39139;53.144;6.244;2023-06-22T04:59:39;30.25;;;27.45;;
51732;SDS011;39139;53.144;6.244;2023-06-22T05:02:06;28.48;;;25.88;;
51732;SDS011;39139;53.144;6.244;2023-06-22T05:04:32;32.75;;;28.55;;
51732;SDS011;39139;53.144;6.244;2023-06-22T05:07:00;31.35;;;28.08;;
51732;SDS011;39139;53.144;6.244;2023-06-22T05:09:27;34.63;;;30.95;;
51732;SDS011;39139;53.144;6.244;2023-06-22T05:11:55;33.78;;;30.50;;
51732;SDS011;39139;53.144;6.244;2023-06-22T05:14:24;34.13;;;30.67;;
51732;SDS011;39139;53.144;6.244;2023-06-22T05:16:50;34.95;;;31.35;;
51732;SDS011;39139;53.144;6.244;2023-06-22T05:19:17;36.08;;;32.45;;
51732;SDS011;39139;53.144;6.244;2023-06-22T05:21:42;40.20;;;36.00;;
51732;SDS011;39139;53.144;6.244;2023-06-22T05:24:08;42.70;;;38.15;;
51732;SDS011;39139;53.144;6.244;2023-06-22T05:26:34;44.20;;;38.42;;
51732;SDS011;39139;53.144;6.244;2023-06-22T05:29:01;52.25;;;41.63;;
51732;SDS011;39139;53.144;6.244;2023-06-22T05:31:27;61.42;;;47.03;;
51732;SDS011;39139;53.144;6.244;2023-06-22T05:33:54;64.03;;;48.42;;
51732;SDS011;39139;53.144;6.244;2023-06-22T05:36:20;56.30;;;45.85;;
51732;SDS011;39139;53.144;6.244;2023-06-22T05:38:50;62.15;;;46.42;;
51732;SDS011;39139;53.144;6.244;2023-06-22T05:41:16;54.22;;;44.55;;
51732;SDS011;39139;53.144;6.244;2023-06-22T05:43:41;47.33;;;42.25;;
51732;SDS011;39139;53.144;6.244;2023-06-22T05:46:07;53.30;;;45.60;;
51732;SDS011;39139;53.144;6.244;2023-06-22T05:48:33;46.45;;;41.25;;
51732;SDS011;39139;53.144;6.244;2023-06-22T05:50:58;48.65;;;41.85;;
51732;SDS011;39139;53.144;6.244;2023-06-22T05:53:24;52.22;;;42.28;;
51732;SDS011;39139;53.144;6.244;2023-06-22T05:55:50;51.67;;;42.65;;
51732;SDS011;39139;53.144;6.244;2023-06-22T05:58:16;46.95;;;40.83;;
51732;SDS011;39139;53.144;6.244;2023-06-22T06:00:41;52.28;;;43.25;;
51732;SDS011;39139;53.144;6.244;2023-06-22T06:03:08;54.53;;;42.70;;
51732;SDS011;39139;53.144;6.244;2023-06-22T06:05:34;56.95;;;47.20;;
51732;SDS011;39139;53.144;6.244;2023-06-22T06:08:01;59.28;;;50.22;;
51732;SDS011;39139;53.144;6.244;2023-06-22T06:10:29;56.92;;;48.70;;
51732;SDS011;39139;53.144;6.244;2023-06-22T06:12:56;58.30;;;46.63;;
51732;SDS011;39139;53.144;6.244;2023-06-22T06:15:21;59.83;;;48.55;;
51732;SDS011;39139;53.144;6.244;2023-06-22T06:17:48;59.60;;;51.03;;
51732;SDS011;39139;53.144;6.244;2023-06-22T06:20:15;58.00;;;47.10;;
51732;SDS011;39139;53.144;6.244;2023-06-22T06:22:43;62.70;;;50.13;;
51732;SDS011;39139;53.144;6.244;2023-06-22T06:25:08;53.65;;;43.40;;
51732;SDS011;39139;53.144;6.244;2023-06-22T06:27:34;58.63;;;48.78;;
51732;SDS011;39139;53.144;6.244;2023-06-22T06:30:00;54.67;;;46.35;;
51732;SDS011;39139;53.144;6.244;2023-06-22T06:32:26;55.80;;;45.30;;
51732;SDS011;39139;53.144;6.244;2023-06-22T06:34:51;51.22;;;44.63;;
51732;SDS011;39139;53.144;6.244;2023-06-22T06:37:17;54.42;;;46.00;;
51732;SDS011;39139;53.144;6.244;2023-06-22T06:39:43;57.08;;;45.80;;
51732;SDS011;39139;53.144;6.244;2023-06-22T06:42:09;52.25;;;44.05;;
51732;SDS011;39139;53.144;6.244;2023-06-22T06:44:36;49.35;;;41.45;;
51732;SDS011;39139;53.144;6.244;2023-06-22T06:47:03;49.58;;;43.15;;
51732;SDS011;39139;53.144;6.244;2023-06-22T06:49:29;44.78;;;39.88;;
51732;SDS011;39139;53.144;6.244;2023-06-22T06:51:55;47.20;;;40.25;;
51732;SDS011;39139;53.144;6.244;2023-06-22T06:54:21;46.08;;;39.83;;
51732;SDS011;39139;53.144;6.244;2023-06-22T06:56:47;42.65;;;38.05;;
51732;SDS011;39139;53.144;6.244;2023-06-22T06:59:13;45.60;;;40.40;;
51732;SDS011;39139;53.144;6.244;2023-06-22T07:01:40;42.53;;;36.92;;
51732;SDS011;39139;53.144;6.244;2023-06-22T07:04:07;43.97;;;39.00;;
51732;SDS011;39139;53.144;6.244;2023-06-22T07:06:32;41.20;;;36.38;;
51732;SDS011;39139;53.144;6.244;2023-06-22T07:08:59;40.72;;;33.83;;
51732;SDS011;39139;53.144;6.244;2023-06-22T07:11:25;40.15;;;35.78;;
51732;SDS011;39139;53.144;6.244;2023-06-22T07:13:50;39.90;;;35.60;;
51732;SDS011;39139;53.144;6.244;2023-06-22T07:16:16;38.25;;;34.05;;
51732;SDS011;39139;53.144;6.244;2023-06-22T07:18:42;33.05;;;29.63;;
51732;SDS011;39139;53.144;6.244;2023-06-22T07:21:07;37.33;;;32.50;;
51732;SDS011;39139;53.144;6.244;2023-06-22T07:23:34;36.13;;;32.25;;
51732;SDS011;39139;53.144;6.244;2023-06-22T07:25:59;32.65;;;28.98;;
51732;SDS011;39139;53.144;6.244;2023-06-22T07:28:28;33.10;;;29.38;;
51732;SDS011;39139;53.144;6.244;2023-06-22T07:30:56;33.88;;;30.08;;
51732;SDS011;39139;53.144;6.244;2023-06-22T07:33:22;32.40;;;28.75;;
51732;SDS011;39139;53.144;6.244;2023-06-22T07:35:48;33.58;;;29.40;;
51732;SDS011;39139;53.144;6.244;2023-06-22T07:38:16;32.38;;;29.02;;
51732;SDS011;39139;53.144;6.244;2023-06-22T07:40:41;29.13;;;25.95;;
51732;SDS011;39139;53.144;6.244;2023-06-22T07:43:07;27.55;;;24.38;;
51732;SDS011;39139;53.144;6.244;2023-06-22T07:45:33;27.50;;;24.70;;
51732;SDS011;39139;53.144;6.244;2023-06-22T07:48:00;30.10;;;26.88;;
51732;SDS011;39139;53.144;6.244;2023-06-22T07:50:26;25.10;;;22.60;;
51732;SDS011;39139;53.144;6.244;2023-06-22T07:52:52;23.42;;;20.83;;
51732;SDS011;39139;53.144;6.244;2023-06-22T07:55:18;21.83;;;19.52;;
51732;SDS011;39139;53.144;6.244;2023-06-22T07:57:43;24.55;;;19.23;;
51732;SDS011;39139;53.144;6.244;2023-06-22T08:00:09;20.88;;;17.10;;
51732;SDS011;39139;53.144;6.244;2023-06-22T08:02:40;19.55;;;15.00;;
51732;SDS011;39139;53.144;6.244;2023-06-22T08:05:07;19.25;;;14.25;;
51732;SDS011;39139;53.144;6.244;2023-06-22T08:07:34;17.33;;;13.45;;
51732;SDS011;39139;53.144;6.244;2023-06-22T08:10:08;16.38;;;12.77;;
51732;SDS011;39139;53.144;6.244;2023-06-22T08:12:35;15.20;;;11.45;;
51732;SDS011;39139;53.144;6.244;2023-06-22T08:15:01;12.52;;;11.43;;
51732;SDS011;39139;53.144;6.244;2023-06-22T08:17:27;14.77;;;12.77;;
51732;SDS011;39139;53.144;6.244;2023-06-22T08:19:53;14.88;;;13.45;;
51732;SDS011;39139;53.144;6.244;2023-06-22T08:22:19;14.90;;;13.32;;
51732;SDS011;39139;53.144;6.244;2023-06-22T08:24:44;13.32;;;11.98;;
51732;SDS011;39139;53.144;6.244;2023-06-22T08:27:10;11.23;;;9.88;;
51732;SDS011;39139;53.144;6.244;2023-06-22T08:29:41;14.45;;;12.75;;
51732;SDS011;39139;53.144;6.244;2023-06-22T08:32:10;14.23;;;12.60;;
51732;SDS011;39139;53.144;6.244;2023-06-22T08:34:37;13.95;;;11.98;;
51732;SDS011;39139;53.144;6.244;2023-06-22T08:37:07;11.70;;;10.60;;
51732;SDS011;39139;53.144;6.244;2023-06-22T08:39:34;11.23;;;10.23;;
51732;SDS011;39139;53.144;6.244;2023-06-22T08:42:00;11.52;;;10.43;;
51732;SDS011;39139;53.144;6.244;2023-06-22T08:44:25;10.57;;;9.57;;
51732;SDS011;39139;53.144;6.244;2023-06-22T08:46:51;11.88;;;9.75;;
51732;SDS011;39139;53.144;6.244;2023-06-22T08:49:17;11.15;;;10.18;;
51732;SDS011;39139;53.144;6.244;2023-06-22T08:51:42;12.07;;;10.88;;
51732;SDS011;39139;53.144;6.244;2023-06-22T08:54:10;10.40;;;9.40;;
51732;SDS011;39139;53.144;6.244;2023-06-22T08:56:36;10.40;;;9.40;;
51732;SDS011;39139;53.144;6.244;2023-06-22T08:59:02;10.20;;;9.30;;
51732;SDS011;39139;53.144;6.244;2023-06-22T09:01:27;10.95;;;9.85;;
51732;SDS011;39139;53.144;6.244;2023-06-22T09:03:53;9.30;;;8.40;;
51732;SDS011;39139;53.144;6.244;2023-06-22T09:06:23;10.45;;;9.57;;
51732;SDS011;39139;53.144;6.244;2023-06-22T09:08:49;9.82;;;8.88;;
51732;SDS011;39139;53.144;6.244;2023-06-22T09:11:15;10.73;;;9.73;;
51732;SDS011;39139;53.144;6.244;2023-06-22T09:13:40;17.85;;;10.80;;
51732;SDS011;39139;53.144;6.244;2023-06-22T09:16:06;12.85;;;10.10;;
51732;SDS011;39139;53.144;6.244;2023-06-22T09:18:33;11.30;;;8.35;;
51732;SDS011;39139;53.144;6.244;2023-06-22T09:20:59;10.25;;;9.35;;
51732;SDS011;39139;53.144;6.244;2023-06-22T09:23:24;9.40;;;8.60;;
51732;SDS011;39139;53.144;6.244;2023-06-22T09:25:50;10.70;;;9.80;;
51732;SDS011;39139;53.144;6.244;2023-06-22T09:28:16;9.75;;;8.80;;
51732;SDS011;39139;53.144;6.244;2023-06-22T09:30:42;10.07;;;9.07;;
51732;SDS011;39139;53.144;6.244;2023-06-22T09:33:09;11.43;;;9.55;;
51732;SDS011;39139;53.144;6.244;2023-06-22T09:35:35;12.68;;;9.98;;
51732;SDS011;39139;53.144;6.244;2023-06-22T09:38:00;12.32;;;11.20;;
51732;SDS011;39139;53.144;6.244;2023-06-22T09:40:26;10.95;;;9.88;;
51732;SDS011;39139;53.144;6.244;2023-06-22T09:42:52;12.00;;;9.60;;
51732;SDS011;39139;53.144;6.244;2023-06-22T09:45:17;12.20;;;9.38;;
51732;SDS011;39139;53.144;6.244;2023-06-22T09:47:43;9.75;;;8.85;;
51732;SDS011;39139;53.144;6.244;2023-06-22T09:50:09;12.00;;;10.80;;
51732;SDS011;39139;53.144;6.244;2023-06-22T09:52:35;12.90;;;8.25;;
51732;SDS011;39139;53.144;6.244;2023-06-22T09:55:00;8.20;;;7.53;;
51732;SDS011;39139;53.144;6.244;2023-06-22T09:57:26;10.75;;;9.45;;
51732;SDS011;39139;53.144;6.244;2023-06-22T09:59:51;11.63;;;9.35;;
51732;SDS011;39139;53.144;6.244;2023-06-22T10:02:17;9.57;;;8.45;;
51732;SDS011;39139;53.144;6.244;2023-06-22T10:04:43;10.95;;;9.80;;
51732;SDS011;39139;53.144;6.244;2023-06-22T10:07:08;11.73;;;10.48;;
51732;SDS011;39139;53.144;6.244;2023-06-22T10:09:34;10.10;;;9.05;;
51732;SDS011;39139;53.144;6.244;2023-06-22T10:12:00;10.00;;;8.93;;
51732;SDS011;39139;53.144;6.244;2023-06-22T10:14:25;12.85;;;8.70;;
51732;SDS011;39139;53.144;6.244;2023-06-22T10:16:52;10.00;;;8.93;;
51732;SDS011;39139;53.144;6.244;2023-06-22T10:19:18;10.48;;;9.38;;
51732;SDS011;39139;53.144;6.244;2023-06-22T10:21:43;8.43;;;7.50;;
51732;SDS011;39139;53.144;6.244;2023-06-22T10:24:09;10.02;;;9.02;;
51732;SDS011;39139;53.144;6.244;2023-06-22T10:26:35;10.88;;;9.13;;
51732;SDS011;39139;53.144;6.244;2023-06-22T10:29:03;8.43;;;7.32;;
51732;SDS011;39139;53.144;6.244;2023-06-22T10:31:29;8.05;;;7.32;;
51732;SDS011;39139;53.144;6.244;2023-06-22T10:33:55;10.23;;;9.00;;
51732;SDS011;39139;53.144;6.244;2023-06-22T10:36:21;8.93;;;7.65;;
51732;SDS011;39139;53.144;6.244;2023-06-22T10:38:47;7.78;;;7.05;;
51732;SDS011;39139;53.144;6.244;2023-06-22T10:41:14;10.23;;;7.88;;
51732;SDS011;39139;53.144;6.244;2023-06-22T10:43:40;10.20;;;7.88;;
51732;SDS011;39139;53.144;6.244;2023-06-22T10:46:06;9.45;;;6.88;;
51732;SDS011;39139;53.144;6.244;2023-06-22T10:48:32;10.90;;;7.60;;
51732;SDS011;39139;53.144;6.244;2023-06-22T10:50:58;9.02;;;7.65;;
51732;SDS011;39139;53.144;6.244;2023-06-22T10:53:24;9.57;;;6.95;;
51732;SDS011;39139;53.144;6.244;2023-06-22T10:55:49;8.60;;;7.78;;
51732;SDS011;39139;53.144;6.244;2023-06-22T10:58:17;7.10;;;6.50;;
51732;SDS011;39139;53.144;6.244;2023-06-22T11:00:44;7.43;;;6.73;;
51732;SDS011;39139;53.144;6.244;2023-06-22T11:03:09;8.45;;;7.38;;
51732;SDS011;39139;53.144;6.244;2023-06-22T11:05:35;8.88;;;7.97;;
51732;SDS011;39139;53.144;6.244;2023-06-22T11:08:01;8.52;;;7.43;;
51732;SDS011;39139;53.144;6.244;2023-06-22T11:10:26;7.93;;;7.03;;
51732;SDS011;39139;53.144;6.244;2023-06-22T11:12:52;7.28;;;6.53;;
51732;SDS011;39139;53.144;6.244;2023-06-22T11:15:18;6.78;;;6.13;;
51732;SDS011;39139;53.144;6.244;2023-06-22T11:17:44;11.20;;;6.82;;
51732;SDS011;39139;53.144;6.244;2023-06-22T11:20:10;7.60;;;6.93;;
51732;SDS011;39139;53.144;6.244;2023-06-22T11:22:37;8.02;;;7.32;;
51732;SDS011;39139;53.144;6.244;2023-06-22T11:25:04;8.20;;;7.50;;
51732;SDS011;39139;53.144;6.244;2023-06-22T11:27:30;9.52;;;6.90;;
51732;SDS011;39139;53.144;6.244;2023-06-22T11:29:56;8.73;;;7.93;;
51732;SDS011;39139;53.144;6.244;2023-06-22T11:32:22;7.18;;;6.53;;
51732;SDS011;39139;53.144;6.244;2023-06-22T11:34:48;8.65;;;7.85;;
51732;SDS011;39139;53.144;6.244;2023-06-22T11:37:13;7.88;;;7.10;;
51732;SDS011;39139;53.144;6.244;2023-06-22T11:39:40;9.75;;;8.75;;
51732;SDS011;39139;53.144;6.244;2023-06-22T11:42:06;8.88;;;7.97;;
51732;SDS011;39139;53.144;6.244;2023-06-22T11:44:32;7.53;;;6.80;;
51732;SDS011;39139;53.144;6.244;2023-06-22T11:46:58;7.85;;;7.07;;
51732;SDS011;39139;53.144;6.244;2023-06-22T11:49:25;6.70;;;5.85;;
51732;SDS011;39139;53.144;6.244;2023-06-22T11:51:51;7.93;;;6.97;;
51732;SDS011;39139;53.144;6.244;2023-06-22T11:54:17;7.90;;;6.40;;
51732;SDS011;39139;53.144;6.244;2023-06-22T11:56:43;7.20;;;6.53;;
51732;SDS011;39139;53.144;6.244;2023-06-22T11:59:09;6.18;;;5.55;;
51732;SDS011;39139;53.144;6.244;2023-06-22T12:01:34;9.90;;;6.03;;
51732;SDS011;39139;53.144;6.244;2023-06-22T12:04:00;8.68;;;5.95;;
51732;SDS011;39139;53.144;6.244;2023-06-22T12:06:25;8.23;;;7.57;;
51732;SDS011;39139;53.144;6.244;2023-06-22T12:08:51;8.00;;;7.32;;
51732;SDS011;39139;53.144;6.244;2023-06-22T12:11:17;8.73;;;7.88;;
51732;SDS011;39139;53.144;6.244;2023-06-22T12:13:42;8.63;;;7.93;;
51732;SDS011;39139;53.144;6.244;2023-06-22T12:16:08;7.65;;;6.95;;
51732;SDS011;39139;53.144;6.244;2023-06-22T12:18:34;10.77;;;8.40;;
51732;SDS011;39139;53.144;6.244;2023-06-22T12:21:00;9.27;;;8.35;;
51732;SDS011;39139;53.144;6.244;2023-06-22T12:23:25;13.18;;;8.52;;
51732;SDS011;39139;53.144;6.244;2023-06-22T12:25:51;10.00;;;8.65;;
51732;SDS011;39139;53.144;6.244;2023-06-22T12:28:16;9.55;;;8.65;;
51732;SDS011;39139;53.144;6.244;2023-06-22T12:30:42;9.73;;;8.68;;
51732;SDS011;39139;53.144;6.244;2023-06-22T12:33:08;8.40;;;7.55;;
51732;SDS011;39139;53.144;6.244;2023-06-22T12:35:34;9.38;;;8.48;;
51732;SDS011;39139;53.144;6.244;2023-06-22T12:38:00;9.00;;;7.47;;
51732;SDS011;39139;53.144;6.244;2023-06-22T12:40:25;7.78;;;6.43;;
51732;SDS011;39139;53.144;6.244;2023-06-22T12:42:51;7.05;;;6.45;;
51732;SDS011;39139;53.144;6.244;2023-06-22T12:45:16;9.65;;;7.88;;
51732;SDS011;39139;53.144;6.244;2023-06-22T12:47:43;7.03;;;6.43;;
51732;SDS011;39139;53.144;6.244;2023-06-22T12:50:10;7.07;;;6.05;;
51732;SDS011;39139;53.144;6.244;2023-06-22T12:52:36;6.18;;;5.68;;
51732;SDS011;39139;53.144;6.244;2023-06-22T12:55:05;7.20;;;6.60;;
51732;SDS011;39139;53.144;6.244;2023-06-22T12:57:31;6.63;;;6.03;;
51732;SDS011;39139;53.144;6.244;2023-06-22T12:59:56;5.65;;;5.20;;
51732;SDS011;39139;53.144;6.244;2023-06-22T13:02:23;6.57;;;5.95;;
51732;SDS011;39139;53.144;6.244;2023-06-22T13:04:49;7.10;;;6.40;;
51732;SDS011;39139;53.144;6.244;2023-06-22T13:07:14;6.40;;;5.47;;
51732;SDS011;39139;53.144;6.244;2023-06-22T13:09:40;7.13;;;5.72;;
51732;SDS011;39139;53.144;6.244;2023-06-22T13:12:06;7.25;;;6.55;;
51732;SDS011;39139;53.144;6.244;2023-06-22T13:14:32;7.57;;;5.80;;
51732;SDS011;39139;53.144;6.244;2023-06-22T13:16:57;9.15;;;6.47;;
51732;SDS011;39139;53.144;6.244;2023-06-22T13:19:23;6.30;;;5.45;;
51732;SDS011;39139;53.144;6.244;2023-06-22T13:21:49;5.20;;;4.70;;
51732;SDS011;39139;53.144;6.244;2023-06-22T13:24:15;5.47;;;5.00;;
51732;SDS011;39139;53.144;6.244;2023-06-22T13:26:41;8.38;;;5.28;;
51732;SDS011;39139;53.144;6.244;2023-06-22T13:29:07;6.25;;;4.97;;
51732;SDS011;39139;53.144;6.244;2023-06-22T13:31:32;5.03;;;4.50;;
51732;SDS011;39139;53.144;6.244;2023-06-22T13:33:58;5.47;;;5.00;;
51732;SDS011;39139;53.144;6.244;2023-06-22T13:36:24;4.45;;;4.07;;
51732;SDS011;39139;53.144;6.244;2023-06-22T13:38:49;6.97;;;4.22;;
51732;SDS011;39139;53.144;6.244;2023-06-22T13:41:15;4.03;;;3.70;;
51732;SDS011;39139;53.144;6.244;2023-06-22T13:43:41;9.02;;;4.85;;
51732;SDS011;39139;53.144;6.244;2023-06-22T13:46:06;4.22;;;3.83;;
51732;SDS011;39139;53.144;6.244;2023-06-22T13:48:32;3.67;;;3.35;;
51732;SDS011;39139;53.144;6.244;2023-06-22T13:50:58;4.20;;;3.40;;
51732;SDS011;39139;53.144;6.244;2023-06-22T13:53:24;4.10;;;3.80;;
51732;SDS011;39139;53.144;6.244;2023-06-22T13:55:50;3.33;;;3.13;;
51732;SDS011;39139;53.144;6.244;2023-06-22T13:58:16;4.18;;;3.50;;
51732;SDS011;39139;53.144;6.244;2023-06-22T14:00:42;6.43;;;3.90;;
51732;SDS011;39139;53.144;6.244;2023-06-22T14:03:07;4.63;;;4.00;;
51732;SDS011;39139;53.144;6.244;2023-06-22T14:05:33;3.97;;;3.67;;
51732;SDS011;39139;53.144;6.244;2023-06-22T14:07:59;2.92;;;2.72;;
51732;SDS011;39139;53.144;6.244;2023-06-22T14:10:24;4.80;;;3.00;;
51732;SDS011;39139;53.144;6.244;2023-06-22T14:12:50;4.93;;;2.70;;
51732;SDS011;39139;53.144;6.244;2023-06-22T14:15:16;3.83;;;3.28;;
51732;SDS011;39139;53.144;6.244;2023-06-22T14:17:42;3.45;;;2.70;;
51732;SDS011;39139;53.144;6.244;2023-06-22T14:20:07;3.95;;;2.85;;
51732;SDS011;39139;53.144;6.244;2023-06-22T14:22:33;2.60;;;2.50;;
51732;SDS011;39139;53.144;6.244;2023-06-22T14:25:00;4.55;;;2.08;;
51732;SDS011;39139;53.144;6.244;2023-06-22T14:27:26;3.85;;;2.20;;
51732;SDS011;39139;53.144;6.244;2023-06-22T14:29:52;1.83;;;1.73;;
51732;SDS011;39139;53.144;6.244;2023-06-22T14:32:18;1.40;;;1.30;;
51732;SDS011;39139;53.144;6.244;2023-06-22T14:34:44;4.45;;;2.00;;
51732;SDS011;39139;53.144;6.244;2023-06-22T14:37:10;2.60;;;2.03;;